Time;durP1;ratioP1;P1;durP2;ratioP2;P2;SDS_P1;SDS_P2;PMS_P1;PMS_P2;Temp;Humidity;BMP_temperature;BMP_pressure;BME280_temperature;BME280_humidity;BME280_pressure;Samples;Min_cycle;Max_cycle;Signal;HPM_P1;HPM_P2
2022/10/19 00:00:21;;;;;;;7.05;6.35;;;11.50;99.90;;;;;;5114463;28;20023;-73
2022/10/19 00:02:46;;;;;;;9.50;6.68;;;11.50;99.90;;;;;;5114703;28;20023;-70
2022/10/19 00:05:12;;;;;;;7.85;6.53;;;11.50;99.90;;;;;;5114507;28;20069;-70
2022/10/19 00:07:37;;;;;;;7.07;6.38;;;11.50;99.90;;;;;;5114543;28;20034;-71
2022/10/19 00:10:04;;;;;;;7.95;6.20;;;11.50;99.90;;;;;;5114494;28;20027;-70
2022/10/19 00:12:29;;;;;;;7.60;6.20;;;11.50;99.90;;;;;;5092923;28;20428;-74
2022/10/19 00:14:56;;;;;;;7.28;6.28;;;11.50;99.90;;;;;;5094109;28;20020;-70
2022/10/19 00:17:21;;;;;;;8.23;6.05;;;11.40;99.90;;;;;;5093764;28;20036;-74
2022/10/19 00:19:47;;;;;;;7.47;6.25;;;11.40;99.90;;;;;;5093980;28;20031;-74
2022/10/19 00:22:13;;;;;;;9.05;7.53;;;11.30;99.90;;;;;;5093869;28;20016;-73
2022/10/19 00:24:39;;;;;;;10.27;6.93;;;11.30;99.90;;;;;;5109938;28;20507;-71
2022/10/19 00:27:05;;;;;;;9.38;7.25;;;11.30;99.90;;;;;;5101719;28;20028;-71
2022/10/19 00:29:31;;;;;;;9.30;7.38;;;11.30;99.90;;;;;;5093782;28;20076;-73
2022/10/19 00:31:57;;;;;;;7.70;6.75;;;11.30;99.90;;;;;;5093680;28;20035;-74
2022/10/19 00:34:23;;;;;;;8.75;7.20;;;11.20;99.90;;;;;;5092503;28;20020;-71
2022/10/19 00:36:48;;;;;;;8.50;6.80;;;11.20;99.90;;;;;;5093655;28;20024;-71
2022/10/19 00:39:15;;;;;;;9.90;7.05;;;11.20;99.90;;;;;;5093458;28;20059;-74
2022/10/19 00:41:42;;;;;;;8.73;6.95;;;11.20;99.90;;;;;;5093009;28;20028;-70
2022/10/19 00:44:11;;;;;;;9.48;6.65;;;11.20;99.90;;;;;;5093653;28;20103;-71
2022/10/19 00:46:39;;;;;;;9.93;7.45;;;11.20;99.90;;;;;;5093547;28;20377;-70
2022/10/19 00:49:21;;;;;;;8.75;6.63;;;11.20;99.90;;;;;;5093573;28;20024;-73
2022/10/19 00:51:49;;;;;;;8.95;6.05;;;11.20;99.90;;;;;;5093594;28;20039;-70
2022/10/19 00:54:16;;;;;;;9.00;6.45;;;11.20;99.90;;;;;;5093581;28;20023;-70
2022/10/19 00:56:43;;;;;;;9.82;6.32;;;11.20;99.90;;;;;;5092440;28;20050;-73
2022/10/19 00:59:11;;;;;;;11.98;7.60;;;11.20;99.90;;;;;;5093537;28;20435;-73
2022/10/19 01:01:37;;;;;;;9.00;6.70;;;11.20;99.90;;;;;;5093426;28;20458;-74
2022/10/19 01:04:03;;;;;;;9.73;7.32;;;11.20;99.90;;;;;;5092274;28;20024;-73
2022/10/19 01:06:29;;;;;;;8.60;6.78;;;11.10;99.90;;;;;;5093343;28;20125;-73
2022/10/19 01:08:55;;;;;;;11.23;8.02;;;11.20;99.90;;;;;;5093365;28;20421;-71
2022/10/19 01:11:32;;;;;;;12.10;8.15;;;11.20;99.90;;;;;;5093262;28;20020;-73
2022/10/19 01:14:36;;;;;;;12.00;7.40;;;11.20;99.90;;;;;;5093330;28;20024;-74
2022/10/19 01:17:10;;;;;;;10.15;7.57;;;11.20;99.90;;;;;;5093579;28;20028;-70
2022/10/19 01:19:39;;;;;;;15.65;8.45;;;11.20;99.90;;;;;;5093459;28;20085;-70
2022/10/19 01:22:10;;;;;;;12.57;7.82;;;11.20;99.90;;;;;;5093255;28;20020;-70
2022/10/19 01:25:04;;;;;;;9.88;7.38;;;11.20;99.90;;;;;;5093427;28;20024;-70
2022/10/19 01:27:29;;;;;;;12.18;7.70;;;11.20;99.90;;;;;;5108045;28;20557;-70
2022/10/19 01:30:16;;;;;;;10.93;8.63;;;11.10;99.90;;;;;;5112593;28;20047;-70
2022/10/19 01:33:16;;;;;;;14.02;9.07;;;11.10;99.90;;;;;;5112201;28;20036;-70
2022/10/19 01:35:54;;;;;;;14.00;9.57;;;11.20;99.90;;;;;;5112378;28;20419;-73
2022/10/19 01:39:00;;;;;;;14.82;9.73;;;11.20;99.90;;;;;;5110441;28;20013;-73
2022/10/19 01:41:37;;;;;;;12.43;9.65;;;11.10;99.90;;;;;;5077035;28;20052;-70
2022/10/19 01:44:26;;;;;;;15.25;10.18;;;11.10;99.90;;;;;;5093038;28;20096;-74
2022/10/19 01:46:57;;;;;;;14.73;11.20;;;11.10;99.90;;;;;;5093048;28;20413;-74
2022/10/19 01:49:32;;;;;;;16.77;11.93;;;11.10;99.90;;;;;;5111673;28;20473;-73
2022/10/19 01:52:02;;;;;;;18.38;11.88;;;11.10;99.90;;;;;;5113141;28;20028;-70
2022/10/19 01:54:31;;;;;;;19.55;11.52;;;11.10;99.90;;;;;;5109704;28;20043;-73
2022/10/19 01:57:01;;;;;;;14.13;9.82;;;11.10;99.90;;;;;;5096782;28;20470;-73
2022/10/19 01:59:27;;;;;;;13.10;9.48;;;11.10;99.90;;;;;;5096582;28;20020;-73
2022/10/19 02:01:54;;;;;;;13.10;9.75;;;11.10;99.90;;;;;;5115446;28;20043;-70
2022/10/19 02:04:22;;;;;;;16.80;10.40;;;11.10;99.90;;;;;;5116854;28;20065;-71
2022/10/19 02:06:49;;;;;;;16.17;10.57;;;11.20;99.90;;;;;;5116851;28;20038;-70
2022/10/19 02:09:17;;;;;;;14.20;10.43;;;11.20;99.90;;;;;;5116795;28;20106;-74
2022/10/19 02:11:52;;;;;;;15.35;10.10;;;11.20;99.90;;;;;;5116783;28;20392;-73
2022/10/19 02:14:22;;;;;;;12.98;9.82;;;11.20;99.90;;;;;;5115360;28;20020;-70
2022/10/19 02:17:15;;;;;;;19.10;11.27;;;11.20;99.90;;;;;;5116817;28;20120;-70
2022/10/19 02:19:42;;;;;;;15.52;11.27;;;11.20;99.90;;;;;;5095148;28;20035;-70
2022/10/19 02:22:08;;;;;;;14.13;9.80;;;11.30;99.90;;;;;;5096282;28;20108;-70
2022/10/19 02:24:34;;;;;;;12.07;9.30;;;11.30;99.90;;;;;;5096034;28;20035;-70
2022/10/19 02:27:03;;;;;;;12.55;10.10;;;11.20;99.90;;;;;;5108446;28;20385;-70
2022/10/19 02:29:30;;;;;;;12.93;9.45;;;11.30;99.90;;;;;;5116296;28;20027;-73
2022/10/19 02:31:55;;;;;;;13.85;10.23;;;11.20;99.90;;;;;;5097613;28;20028;-71
2022/10/19 02:34:21;;;;;;;14.57;10.23;;;11.20;99.90;;;;;;5095948;28;20428;-73
2022/10/19 02:36:46;;;;;;;12.75;9.55;;;11.20;99.90;;;;;;5104737;28;20035;-73
2022/10/19 02:39:12;;;;;;;15.13;11.00;;;11.20;99.90;;;;;;5103926;28;20538;-73
2022/10/19 02:41:53;;;;;;;16.90;10.80;;;11.30;99.90;;;;;;5095800;28;20043;-70
2022/10/19 02:44:23;;;;;;;13.85;10.65;;;11.20;99.90;;;;;;5095732;28;20035;-70
2022/10/19 02:46:55;;;;;;;13.40;10.38;;;11.20;99.90;;;;;;5095770;28;20481;-73
2022/10/19 02:49:21;;;;;;;15.93;10.82;;;11.20;99.90;;;;;;5095660;28;20467;-73
2022/10/19 02:52:02;;;;;;;16.15;10.07;;;11.20;99.90;;;;;;5095558;28;20124;-70
2022/10/19 02:54:28;;;;;;;12.65;9.52;;;11.10;99.90;;;;;;5098015;28;20078;-70
2022/10/19 02:56:55;;;;;;;16.52;10.48;;;11.10;99.90;;;;;;5116082;28;20027;-73
2022/10/19 02:59:20;;;;;;;15.30;10.70;;;11.10;99.90;;;;;;5115794;28;20031;-73
2022/10/19 03:01:46;;;;;;;15.10;10.82;;;11.10;99.90;;;;;;5115813;28;20024;-73
2022/10/19 03:04:11;;;;;;;16.10;10.35;;;11.10;99.90;;;;;;5113940;28;20110;-71
2022/10/19 03:06:37;;;;;;;18.33;10.63;;;11.10;99.90;;;;;;5115318;28;20111;-73
2022/10/19 03:09:03;;;;;;;19.27;11.57;;;11.10;99.90;;;;;;5073782;28;20023;-70
2022/10/19 03:11:28;;;;;;;15.85;10.93;;;11.20;99.90;;;;;;5074961;28;20122;-71
2022/10/19 03:13:54;;;;;;;18.27;10.52;;;11.10;99.90;;;;;;5096242;28;20019;-71
2022/10/19 03:16:19;;;;;;;15.02;9.95;;;11.10;99.90;;;;;;5115538;28;20049;-73
2022/10/19 03:18:47;;;;;;;15.93;10.90;;;11.10;99.90;;;;;;5115400;28;20016;-73
2022/10/19 03:21:13;;;;;;;15.30;10.40;;;11.10;99.90;;;;;;5115350;28;20020;-73
2022/10/19 03:23:39;;;;;;;13.45;10.80;;;11.10;99.90;;;;;;5115218;28;20030;-73
2022/10/19 03:26:06;;;;;;;17.98;10.68;;;11.10;99.90;;;;;;5111860;28;20106;-70
2022/10/19 03:28:32;;;;;;;15.90;11.55;;;11.10;99.90;;;;;;5113904;28;20023;-74
2022/10/19 03:30:57;;;;;;;13.88;10.25;;;11.10;99.90;;;;;;5113980;28;20020;-73
2022/10/19 03:33:24;;;;;;;17.13;10.60;;;11.00;99.90;;;;;;5115287;28;20023;-70
2022/10/19 03:35:50;;;;;;;18.50;11.52;;;11.00;99.90;;;;;;5115093;28;20023;-73
2022/10/19 03:38:16;;;;;;;16.75;11.77;;;11.00;99.90;;;;;;5111956;28;20380;-73
2022/10/19 03:40:41;;;;;;;17.48;11.85;;;11.00;99.90;;;;;;5094410;28;20052;-74
2022/10/19 03:43:07;;;;;;;15.50;11.05;;;11.00;99.90;;;;;;5094670;28;20035;-70
2022/10/19 03:45:33;;;;;;;21.38;13.05;;;11.00;99.90;;;;;;5093093;28;20138;-74
2022/10/19 03:47:58;;;;;;;19.40;12.70;;;10.90;99.90;;;;;;5093375;28;20074;-70
2022/10/19 03:50:24;;;;;;;16.92;12.43;;;10.90;99.90;;;;;;5094439;28;20027;-73
2022/10/19 03:52:49;;;;;;;17.15;12.27;;;10.90;99.90;;;;;;5094464;28;20036;-74
2022/10/19 03:55:15;;;;;;;21.25;12.68;;;10.90;99.90;;;;;;5094301;28;20024;-73
2022/10/19 03:57:42;;;;;;;23.75;12.40;;;10.80;99.90;;;;;;5094418;28;20055;-71
2022/10/19 04:00:08;;;;;;;18.90;13.10;;;10.80;99.90;;;;;;5094245;28;20382;-73
2022/10/19 04:02:34;;;;;;;20.75;13.65;;;10.80;99.90;;;;;;5102878;28;20055;-73
2022/10/19 04:04:59;;;;;;;21.60;14.02;;;10.80;99.90;;;;;;5114482;28;20031;-72
2022/10/19 04:07:25;;;;;;;20.58;13.77;;;10.80;99.90;;;;;;5114597;28;20023;-71
2022/10/19 04:09:50;;;;;;;20.98;13.90;;;10.80;99.90;;;;;;5114514;28;20085;-73
2022/10/19 04:12:16;;;;;;;24.77;14.88;;;10.80;99.90;;;;;;5114521;28;20110;-74
2022/10/19 04:14:41;;;;;;;21.20;14.23;;;10.80;99.90;;;;;;5104322;28;20024;-74
2022/10/19 04:17:08;;;;;;;23.23;15.10;;;10.80;99.90;;;;;;5092257;28;20047;-73
2022/10/19 04:19:33;;;;;;;25.05;13.82;;;10.70;99.90;;;;;;5092668;28;20085;-71
2022/10/19 04:21:59;;;;;;;20.52;13.40;;;10.70;99.90;;;;;;5094035;28;20107;-73
2022/10/19 04:24:24;;;;;;;20.88;13.52;;;10.60;99.90;;;;;;5093876;28;20122;-73
2022/10/19 04:26:52;;;;;;;23.20;14.18;;;10.60;99.90;;;;;;5105510;28;20030;-74
2022/10/19 04:29:19;;;;;;;19.95;13.35;;;10.50;99.90;;;;;;5114297;28;20038;-74
2022/10/19 04:31:47;;;;;;;21.17;13.95;;;10.40;99.90;;;;;;5112242;28;20157;-70
2022/10/19 04:34:13;;;;;;;20.67;13.27;;;10.40;99.90;;;;;;5092564;28;20024;-70
2022/10/19 04:36:38;;;;;;;20.65;13.52;;;10.30;99.90;;;;;;5093651;28;20043;-72
2022/10/19 04:39:05;;;;;;;20.05;12.90;;;10.30;99.90;;;;;;5093333;28;20055;-71
2022/10/19 04:41:32;;;;;;;20.98;13.43;;;10.20;99.90;;;;;;5093583;28;20424;-70
2022/10/19 04:43:59;;;;;;;23.75;14.32;;;10.20;99.90;;;;;;5093653;28;20464;-71
2022/10/19 04:46:26;;;;;;;20.45;13.25;;;10.10;99.90;;;;;;5073351;28;20035;-70
2022/10/19 04:48:52;;;;;;;20.67;12.80;;;10.10;99.90;;;;;;5073558;28;20024;-73
2022/10/19 04:51:19;;;;;;;26.27;14.23;;;10.00;99.90;;;;;;5071949;28;20024;-70
2022/10/19 04:53:44;;;;;;;24.85;13.32;;;10.00;99.90;;;;;;5073435;28;20024;-71
2022/10/19 04:56:21;;;;;;;20.23;12.68;;;10.00;99.90;;;;;;5076397;28;20108;-73
2022/10/19 04:58:47;;;;;;;20.10;13.18;;;10.00;99.90;;;;;;5114083;28;20476;-73
2022/10/19 05:01:16;;;;;;;22.40;12.48;;;9.90;99.90;;;;;;5113806;28;20028;-74
2022/10/19 05:03:42;;;;;;;22.92;12.70;;;9.90;99.90;;;;;;5098183;28;20039;-73
2022/10/19 05:06:08;;;;;;;21.50;12.70;;;9.80;99.90;;;;;;5093513;28;20899;-71
2022/10/19 05:08:35;;;;;;;21.38;12.75;;;9.80;99.90;;;;;;5093482;28;20076;-73
2022/10/19 05:11:13;;;;;;;24.33;12.73;;;9.80;99.90;;;;;;5093349;28;20024;-70
2022/10/19 05:13:39;;;;;;;20.23;12.10;;;9.80;99.90;;;;;;5093355;28;20121;-73
2022/10/19 05:16:06;;;;;;;23.30;13.23;;;9.80;99.90;;;;;;5106601;28;20023;-70
2022/10/19 05:18:32;;;;;;;21.60;12.95;;;9.80;99.90;;;;;;5113765;28;20446;-71
2022/10/19 05:21:02;;;;;;;18.83;11.40;;;9.80;99.90;;;;;;5113595;28;20028;-73
2022/10/19 05:23:28;;;;;;;24.35;13.63;;;9.80;99.90;;;;;;5112428;28;20393;-70
2022/10/19 05:26:05;;;;;;;22.35;14.10;;;9.80;99.90;;;;;;5109370;28;20025;-72
2022/10/19 05:28:32;;;;;;;22.88;14.38;;;9.70;99.90;;;;;;5096972;28;20062;-74
2022/10/19 05:31:14;;;;;;;22.00;13.02;;;9.70;99.90;;;;;;5095881;28;20023;-73
2022/10/19 05:33:40;;;;;;;22.67;13.52;;;9.80;99.90;;;;;;5095970;28;20029;-70
2022/10/19 05:36:19;;;;;;;27.17;14.10;;;9.70;99.90;;;;;;5096952;28;20035;-70
2022/10/19 05:38:47;;;;;;;22.17;12.25;;;9.70;99.90;;;;;;5096901;28;20077;-71
2022/10/19 05:41:13;;;;;;;26.35;14.02;;;9.70;99.90;;;;;;5096888;28;20028;-73
2022/10/19 05:43:40;;;;;;;17.85;12.63;;;9.70;99.90;;;;;;5097016;28;20107;-73
2022/10/19 05:46:08;;;;;;;22.83;13.85;;;9.70;99.90;;;;;;5096740;28;20032;-73
2022/10/19 05:48:34;;;;;;;19.25;13.05;;;9.80;99.90;;;;;;5096857;28;20024;-74
2022/10/19 05:51:04;;;;;;;19.48;12.88;;;9.80;99.90;;;;;;5095375;28;20080;-73
2022/10/19 05:53:31;;;;;;;20.98;13.88;;;9.70;99.90;;;;;;5092302;28;20031;-70
2022/10/19 05:55:57;;;;;;;32.65;13.32;;;9.70;99.90;;;;;;5095478;28;20078;-74
2022/10/19 05:58:23;;;;;;;20.63;12.38;;;9.70;99.90;;;;;;5092123;27;20045;-70
2022/10/19 06:00:57;;;;;;;18.75;12.07;;;9.70;99.90;;;;;;5099324;28;20093;-74
2022/10/19 06:03:24;;;;;;;20.52;13.00;;;9.70;99.90;;;;;;5088922;28;20497;-73
2022/10/19 06:05:50;;;;;;;19.05;12.93;;;9.70;99.90;;;;;;5105870;28;20061;-73
2022/10/19 06:08:17;;;;;;;23.98;12.65;;;9.80;99.90;;;;;;5103761;28;20133;-70
2022/10/19 06:10:43;;;;;;;20.48;12.02;;;9.80;99.90;;;;;;5103536;28;20439;-69
2022/10/19 06:13:09;;;;;;;23.40;11.77;;;9.80;99.90;;;;;;5100442;28;20112;-69
2022/10/19 06:15:35;;;;;;;19.20;12.93;;;9.80;99.90;;;;;;5114764;28;20019;-72
2022/10/19 06:18:05;;;;;;;20.27;12.25;;;9.80;99.90;;;;;;5114705;27;20409;-72
2022/10/19 06:20:36;;;;;;;18.25;12.13;;;9.90;99.90;;;;;;5114921;28;20023;-73
2022/10/19 06:23:04;;;;;;;26.17;13.55;;;9.90;99.90;;;;;;5113821;28;20035;-72
2022/10/19 06:25:30;;;;;;;22.80;13.18;;;9.90;99.90;;;;;;5113813;28;20019;-73
2022/10/19 06:27:56;;;;;;;21.73;12.73;;;10.00;99.90;;;;;;5103038;28;20114;-69
2022/10/19 06:30:21;;;;;;;19.75;12.35;;;10.00;99.90;;;;;;5114794;28;20107;-73
2022/10/19 06:32:47;;;;;;;19.33;12.50;;;10.00;99.90;;;;;;5105294;28;20032;-70
2022/10/19 06:35:12;;;;;;;26.70;15.48;;;10.00;99.90;;;;;;5108896;28;20024;-69
2022/10/19 06:37:38;;;;;;;25.08;15.05;;;10.00;99.90;;;;;;5101320;27;20035;-74
2022/10/19 06:40:04;;;;;;;25.58;15.88;;;10.00;99.90;;;;;;5102223;28;20059;-74
2022/10/19 06:42:29;;;;;;;23.25;14.88;;;10.00;99.90;;;;;;5114588;27;20392;-74
2022/10/19 06:44:55;;;;;;;24.02;16.17;;;10.00;99.90;;;;;;5109119;27;20042;-74
2022/10/19 06:47:21;;;;;;;23.15;15.45;;;10.00;99.90;;;;;;5109571;28;20469;-73
2022/10/19 06:49:46;;;;;;;30.08;17.02;;;10.00;99.90;;;;;;5112587;28;20059;-74
2022/10/19 06:52:12;;;;;;;25.25;16.13;;;10.10;99.90;;;;;;5113702;28;20040;-74
2022/10/19 06:54:37;;;;;;;26.85;15.50;;;10.10;99.90;;;;;;5114847;27;20035;-73
2022/10/19 06:57:03;;;;;;;30.13;17.95;;;10.10;99.90;;;;;;5113718;28;20027;-74
2022/10/19 06:59:28;;;;;;;27.23;16.58;;;10.10;99.90;;;;;;5115117;28;20071;-73
2022/10/19 07:01:54;;;;;;;25.50;15.15;;;10.20;99.90;;;;;;5115869;28;20027;-72
2022/10/19 07:04:19;;;;;;;29.75;15.45;;;10.20;99.90;;;;;;5098220;28;20020;-71
2022/10/19 07:06:45;;;;;;;21.75;14.77;;;10.20;99.90;;;;;;5095364;28;20112;-73
2022/10/19 07:09:10;;;;;;;22.73;13.27;;;10.20;99.90;;;;;;5094123;28;20039;-73
2022/10/19 07:11:36;;;;;;;27.48;14.65;;;10.20;99.90;;;;;;5095104;28;20055;-73
2022/10/19 07:14:02;;;;;;;23.40;13.75;;;10.30;99.90;;;;;;5095270;28;20016;-74
2022/10/19 07:16:27;;;;;;;24.77;14.40;;;10.30;99.90;;;;;;5095099;28;20417;-69
2022/10/19 07:18:53;;;;;;;26.58;13.77;;;10.30;99.90;;;;;;5095158;28;20065;-70
2022/10/19 07:21:20;;;;;;;24.23;15.77;;;10.30;99.90;;;;;;5095149;28;20024;-69
2022/10/19 07:23:47;;;;;;;21.08;12.68;;;10.30;99.90;;;;;;5094967;28;20031;-70
2022/10/19 07:26:20;;;;;;;18.42;11.80;;;10.40;99.90;;;;;;5102331;28;20022;-72
2022/10/19 07:28:47;;;;;;;23.00;14.13;;;10.40;99.90;;;;;;5115377;28;20024;-70
2022/10/19 07:31:19;;;;;;;21.05;12.57;;;10.50;99.90;;;;;;5113919;28;20412;-70
2022/10/19 07:33:45;;;;;;;22.55;11.85;;;10.60;99.90;;;;;;5102703;28;20024;-70
2022/10/19 07:36:12;;;;;;;18.80;11.23;;;10.50;99.90;;;;;;5093492;28;20070;-73
2022/10/19 07:38:38;;;;;;;18.90;12.85;;;10.50;99.90;;;;;;5094620;28;20544;-73
2022/10/19 07:41:07;;;;;;;18.00;10.82;;;10.60;99.90;;;;;;5094464;28;20106;-72
2022/10/19 07:43:33;;;;;;;20.70;11.63;;;10.60;99.90;;;;;;5094607;28;20077;-70
2022/10/19 07:46:00;;;;;;;18.55;11.70;;;10.60;99.90;;;;;;5094600;28;20047;-72
2022/10/19 07:48:26;;;;;;;19.42;11.35;;;10.80;99.90;;;;;;5094529;28;20061;-70
2022/10/19 07:50:52;;;;;;;14.65;9.77;;;10.80;99.90;;;;;;5094154;28;20024;-72
2022/10/19 07:53:18;;;;;;;17.83;9.60;;;10.80;99.90;;;;;;5094386;28;20432;-73
2022/10/19 07:55:43;;;;;;;22.05;11.45;;;10.80;99.90;;;;;;5094475;28;20074;-71
2022/10/19 07:58:09;;;;;;;15.15;9.50;;;10.80;99.90;;;;;;5093058;28;20069;-70
2022/10/19 08:00:34;;;;;;;21.48;9.45;;;10.80;99.90;;;;;;5093091;28;20058;-69
2022/10/19 08:03:00;;;;;;;16.27;8.88;;;10.80;99.90;;;;;;5094325;28;20033;-70
2022/10/19 08:05:25;;;;;;;16.13;8.52;;;10.80;99.90;;;;;;5094215;28;20028;-70
2022/10/19 08:07:51;;;;;;;14.43;8.45;;;10.80;99.90;;;;;;5094243;28;20100;-73
2022/10/19 08:10:16;;;;;;;14.63;7.80;;;10.80;99.90;;;;;;5094224;28;20020;-73
2022/10/19 08:12:42;;;;;;;10.82;7.00;;;10.80;99.90;;;;;;5092789;28;20154;-73
2022/10/19 08:15:08;;;;;;;11.30;7.25;;;10.80;99.90;;;;;;5094069;28;20031;-73
2022/10/19 08:17:35;;;;;;;11.07;6.95;;;10.80;99.90;;;;;;5092755;28;20024;-70
2022/10/19 08:20:01;;;;;;;12.77;7.45;;;10.80;99.90;;;;;;5092674;28;20028;-69
2022/10/19 08:22:27;;;;;;;12.88;7.10;;;10.80;99.90;;;;;;5092779;28;20020;-73
2022/10/19 08:24:52;;;;;;;9.77;6.75;;;10.70;99.90;;;;;;5093917;28;20391;-69
2022/10/19 08:27:18;;;;;;;15.23;7.25;;;10.70;99.90;;;;;;5110880;28;20453;-70
2022/10/19 08:29:44;;;;;;;9.40;5.88;;;10.70;99.90;;;;;;5114175;28;20082;-73
2022/10/19 08:32:09;;;;;;;8.80;6.57;;;10.70;99.90;;;;;;5114174;28;20115;-73
2022/10/19 08:34:35;;;;;;;9.65;6.15;;;10.70;99.90;;;;;;5112797;28;20023;-73
2022/10/19 08:37:01;;;;;;;11.35;6.82;;;10.80;99.90;;;;;;5114320;28;20019;-73
2022/10/19 08:39:27;;;;;;;9.38;6.25;;;10.80;99.90;;;;;;5104435;28;20063;-69
2022/10/19 08:42:01;;;;;;;16.27;6.53;;;10.90;99.90;;;;;;5112827;28;20023;-73
2022/10/19 08:44:58;;;;;;;9.38;5.13;;;11.00;99.90;;;;;;5113956;28;20038;-73
2022/10/19 08:47:38;;;;;;;7.43;4.47;;;11.10;99.90;;;;;;5114143;28;20020;-69
2022/10/19 08:50:22;;;;;;;4.25;3.80;;;11.10;99.90;;;;;;5114013;28;20038;-72
2022/10/19 08:53:10;;;;;;;8.65;3.88;;;11.20;99.90;;;;;;5114053;28;20063;-69
2022/10/19 08:55:57;;;;;;;8.00;3.97;;;11.30;99.90;;;;;;5114010;28;20465;-69
2022/10/19 08:58:30;;;;;;;4.90;3.33;;;11.40;99.90;;;;;;5113954;28;20123;-69
2022/10/19 09:01:07;;;;;;;10.85;3.95;;;11.40;99.90;;;;;;5112706;28;20047;-69
2022/10/19 09:03:49;;;;;;;4.45;3.55;;;11.50;99.90;;;;;;5117937;28;20036;-69
2022/10/19 09:06:32;;;;;;;7.25;3.20;;;11.60;99.90;;;;;;5118169;28;20058;-70
2022/10/19 09:08:58;;;;;;;4.57;2.65;;;11.50;99.90;;;;;;5118126;28;20119;-73
2022/10/19 09:11:28;;;;;;;7.57;3.30;;;11.50;99.90;;;;;;5116615;28;20114;-71
2022/10/19 09:14:01;;;;;;;6.13;3.83;;;11.40;98.50;;;;;;5116611;28;20488;-69
2022/10/19 09:16:27;;;;;;;7.13;3.72;;;11.40;99.90;;;;;;5104755;28;20560;-73
2022/10/19 09:18:53;;;;;;;9.00;4.22;;;11.40;99.90;;;;;;5097432;28;20021;-70
2022/10/19 09:21:27;;;;;;;7.15;3.38;;;11.40;99.90;;;;;;5097386;28;20051;-72
2022/10/19 09:24:01;;;;;;;6.00;3.40;;;11.30;99.90;;;;;;5097486;28;20016;-70
2022/10/19 09:26:34;;;;;;;6.72;3.17;;;11.20;99.90;;;;;;5106001;28;20055;-70
2022/10/19 09:29:20;;;;;;;15.05;3.67;;;11.20;99.90;;;;;;5103717;28;20028;-70
2022/10/19 09:31:46;;;;;;;7.97;3.50;;;11.10;99.90;;;;;;5097253;28;20034;-72
2022/10/19 09:34:30;;;;;;;7.45;4.30;;;11.10;99.90;;;;;;5097120;28;20024;-72
2022/10/19 09:36:57;;;;;;;8.05;4.13;;;11.00;99.90;;;;;;5097208;28;20044;-73
2022/10/19 09:39:25;;;;;;;5.97;3.95;;;11.00;99.90;;;;;;5096801;28;20043;-73
2022/10/19 09:41:53;;;;;;;6.53;3.88;;;11.00;99.90;;;;;;5097008;28;20095;-73
2022/10/19 09:44:20;;;;;;;5.60;3.97;;;11.00;99.90;;;;;;5097002;28;20024;-70
2022/10/19 09:46:52;;;;;;;7.95;3.85;;;11.00;99.90;;;;;;5095556;28;20020;-70
2022/10/19 09:49:18;;;;;;;7.32;4.00;;;11.00;99.90;;;;;;5097024;28;20539;-73
2022/10/19 09:51:51;;;;;;;6.20;3.67;;;11.00;99.90;;;;;;5096826;28;20020;-72
2022/10/19 09:54:30;;;;;;;4.13;3.53;;;11.00;99.90;;;;;;5095471;28;20028;-73
2022/10/19 09:56:56;;;;;;;4.70;3.45;;;11.10;99.90;;;;;;5096896;28;20377;-70
2022/10/19 09:59:27;;;;;;;6.90;3.28;;;11.10;99.90;;;;;;5096594;28;20035;-71
2022/10/19 10:02:22;;;;;;;6.90;3.42;;;11.10;99.90;;;;;;5095352;28;20016;-69
2022/10/19 10:05:09;;;;;;;5.03;4.25;;;11.10;99.90;;;;;;5089617;28;20040;-72
2022/10/19 10:07:37;;;;;;;9.05;3.53;;;11.10;99.90;;;;;;5096658;28;20028;-69
2022/10/19 10:10:33;;;;;;;6.63;3.33;;;11.00;99.90;;;;;;5096356;28;20051;-73
2022/10/19 10:12:59;;;;;;;5.97;2.95;;;11.00;99.90;;;;;;5093101;28;20072;-70
2022/10/19 10:15:29;;;;;;;6.97;3.25;;;10.90;99.90;;;;;;5095698;28;20066;-73
2022/10/19 10:17:57;;;;;;;7.47;3.35;;;10.80;99.90;;;;;;5096352;28;20111;-70
2022/10/19 10:20:29;;;;;;;8.45;3.72;;;10.80;99.90;;;;;;5096170;28;20047;-73
2022/10/19 10:23:00;;;;;;;3.88;3.05;;;10.70;99.90;;;;;;5096282;28;20028;-69
2022/10/19 10:25:29;;;;;;;4.88;2.92;;;10.70;99.90;;;;;;5096580;28;20017;-69
2022/10/19 10:27:58;;;;;;;8.60;2.88;;;10.70;99.90;;;;;;5116608;28;20103;-69
2022/10/19 10:30:25;;;;;;;6.25;4.03;;;10.70;99.90;;;;;;5115145;28;20016;-72
2022/10/19 10:32:53;;;;;;;6.45;3.42;;;10.80;99.90;;;;;;5115156;28;20031;-73
2022/10/19 10:35:32;;;;;;;6.60;3.50;;;10.90;99.90;;;;;;5116368;28;20373;-70
2022/10/19 10:38:13;;;;;;;6.80;4.50;;;10.90;99.90;;;;;;5113561;28;20031;-73
2022/10/19 10:40:39;;;;;;;7.07;4.13;;;11.10;99.90;;;;;;5095791;28;20051;-70
2022/10/19 10:43:11;;;;;;;8.48;3.90;;;11.20;99.90;;;;;;5096019;28;20024;-70
2022/10/19 10:45:44;;;;;;;5.45;3.90;;;11.20;99.90;;;;;;5095148;28;20028;-73
2022/10/19 10:48:35;;;;;;;7.78;4.18;;;11.30;99.90;;;;;;5114919;28;20491;-73
2022/10/19 10:51:01;;;;;;;5.88;3.63;;;11.30;99.90;;;;;;5116036;28;20027;-70
2022/10/19 10:53:37;;;;;;;9.70;4.03;;;11.40;99.90;;;;;;5115982;28;20401;-69
2022/10/19 10:56:04;;;;;;;5.30;4.05;;;11.40;99.90;;;;;;5116003;28;20054;-73
2022/10/19 10:58:46;;;;;;;8.50;3.65;;;11.50;99.90;;;;;;5114682;28;20023;-73
2022/10/19 11:01:19;;;;;;;4.97;4.20;;;11.60;99.90;;;;;;5115854;28;20023;-73
2022/10/19 11:04:11;;;;;;;5.68;3.50;;;11.70;99.90;;;;;;5115975;28;20028;-69
2022/10/19 11:06:43;;;;;;;5.75;3.20;;;11.70;99.90;;;;;;5113982;28;20028;-69
2022/10/19 11:09:17;;;;;;;4.75;3.30;;;11.50;99.90;;;;;;5115734;27;20024;-69
2022/10/19 11:11:45;;;;;;;6.50;3.08;;;11.50;99.90;;;;;;5115653;28;20031;-73
2022/10/19 11:14:34;;;;;;;8.25;3.50;;;11.50;99.90;;;;;;5115717;28;20016;-69
2022/10/19 11:17:05;;;;;;;7.30;3.60;;;11.50;99.90;;;;;;5103844;28;20095;-69
2022/10/19 11:19:44;;;;;;;6.32;3.53;;;11.40;99.90;;;;;;5093842;28;20020;-70
2022/10/19 11:22:19;;;;;;;5.38;3.28;;;11.30;99.90;;;;;;5095051;28;20073;-70
2022/10/19 11:25:02;;;;;;;4.68;2.83;;;11.30;99.90;;;;;;5094637;28;20043;-72
2022/10/19 11:27:33;;;;;;;3.83;2.70;;;11.30;99.90;;;;;;5114119;28;20026;-69
2022/10/19 11:30:08;;;;;;;6.35;2.65;;;11.30;99.90;;;;;;5095173;28;20024;-70
2022/10/19 11:33:04;;;;;;;3.88;2.72;;;11.30;99.90;;;;;;5094795;28;20032;-72
2022/10/19 11:35:52;;;;;;;7.72;2.92;;;11.30;99.90;;;;;;5095135;28;20028;-72
2022/10/19 11:38:39;;;;;;;5.53;2.35;;;11.30;99.90;;;;;;5094870;28;20067;-73
2022/10/19 11:41:25;;;;;;;4.78;2.70;;;11.20;99.90;;;;;;5093231;28;20131;-69
2022/10/19 11:43:57;;;;;;;5.82;2.97;;;11.20;99.90;;;;;;5093506;28;20126;-70
2022/10/19 11:46:33;;;;;;;4.17;2.27;;;11.10;99.90;;;;;;5093112;28;20386;-73
2022/10/19 11:49:07;;;;;;;4.75;2.72;;;11.10;99.90;;;;;;5094626;28;20031;-73
2022/10/19 11:51:56;;;;;;;7.05;2.72;;;11.00;99.90;;;;;;5094314;28;20433;-69
2022/10/19 11:54:42;;;;;;;8.23;2.88;;;11.00;99.90;;;;;;5105334;28;20377;-70
2022/10/19 11:57:24;;;;;;;4.63;2.58;;;11.00;99.90;;;;;;5114851;28;20384;-73
2022/10/19 12:00:05;;;;;;;5.50;2.30;;;11.00;99.90;;;;;;5114628;28;20058;-70
2022/10/19 12:02:46;;;;;;;4.25;2.65;;;11.10;99.90;;;;;;5114680;28;20270;-73
2022/10/19 12:05:11;;;;;;;5.63;2.88;;;11.20;99.90;;;;;;5104030;28;20081;-69
2022/10/19 12:07:49;;;;;;;4.13;2.40;;;11.30;99.90;;;;;;5094330;28;20032;-69
2022/10/19 12:10:32;;;;;;;3.45;2.17;;;11.40;99.90;;;;;;5094300;28;20354;-70
2022/10/19 12:13:02;;;;;;;4.20;2.60;;;11.50;99.90;;;;;;5094121;28;20040;-73
2022/10/19 12:15:30;;;;;;;5.40;2.50;;;11.50;99.90;;;;;;5094012;28;20020;-69
2022/10/19 12:18:02;;;;;;;5.90;2.67;;;11.40;99.90;;;;;;5094052;28;20024;-73
2022/10/19 12:20:31;;;;;;;3.92;2.67;;;11.30;99.90;;;;;;5094061;28;20024;-73
2022/10/19 12:22:58;;;;;;;7.97;3.00;;;11.30;99.90;;;;;;5100387;28;20028;-73
2022/10/19 12:25:25;;;;;;;4.03;2.67;;;11.20;99.90;;;;;;5110778;28;20031;-72
2022/10/19 12:27:51;;;;;;;5.68;2.75;;;11.20;99.90;;;;;;5094008;28;20066;-72
2022/10/19 12:30:22;;;;;;;6.40;2.92;;;11.20;99.90;;;;;;5093744;28;20032;-70
2022/10/19 12:32:59;;;;;;;5.93;2.88;;;11.10;99.90;;;;;;5093766;28;20524;-73
2022/10/19 12:35:46;;;;;;;5.63;2.63;;;11.00;99.90;;;;;;5092573;28;20035;-73
2022/10/19 12:38:24;;;;;;;6.78;2.10;;;11.00;99.90;;;;;;5093308;28;20020;-73
2022/10/19 12:41:15;;;;;;;3.83;2.38;;;11.10;99.90;;;;;;5093925;28;20093;-70
2022/10/19 12:44:07;;;;;;;5.68;2.88;;;11.10;99.90;;;;;;5077678;28;20109;-74
2022/10/19 12:46:52;;;;;;;6.32;2.40;;;11.20;99.90;;;;;;5084546;28;20028;-70
2022/10/19 12:49:35;;;;;;;4.75;2.50;;;11.30;99.90;;;;;;5073651;28;20401;-69
2022/10/19 12:52:01;;;;;;;4.47;2.53;;;11.40;99.90;;;;;;5073429;28;20033;-73
2022/10/19 12:54:30;;;;;;;4.03;2.28;;;11.40;99.90;;;;;;5104514;28;20027;-70